Time;durP1;ratioP1;P1;durP2;ratioP2;P2;SDS_P1;SDS_P2;PMS_P1;PMS_P2;Temp;Humidity;BMP_temperature;BMP_pressure;BME280_temperature;BME280_humidity;BME280_pressure;Samples;Min_cycle;Max_cycle;Signal;HPM_P1;HPM_P2
2023/02/22 00:01:20;;;;;;;12.75;8.13;;;;;;;8.68;100.00;100198.28;5007892;28;20045;-75
2023/02/22 00:03:50;;;;;;;14.00;6.70;;;;;;;8.72;100.00;100178.25;5007538;28;20046;-75
2023/02/22 00:06:18;;;;;;;14.77;7.70;;;;;;;9.09;100.00;100221.97;5005352;28;20050;-76
2023/02/22 00:08:47;;;;;;;11.25;7.45;;;;;;;9.13;100.00;100237.69;4990235;28;20053;-75
2023/02/22 00:11:13;;;;;;;14.68;7.72;;;;;;;8.41;100.00;100110.16;4989372;28;20061;-76
2023/02/22 00:13:42;;;;;;;15.32;8.90;;;;;;;8.98;100.00;100218.44;4985513;28;20154;-76
2023/02/22 00:16:11;;;;;;;11.32;7.35;;;;;;;8.56;100.00;100148.53;4987550;28;20417;-75
2023/02/22 00:18:37;;;;;;;15.27;9.52;;;;;;;8.22;100.00;100091.72;4987051;28;20410;-77
2023/02/22 00:21:03;;;;;;;25.73;9.60;;;;;;;7.89;100.00;100050.66;4985975;28;20095;-76
2023/02/22 00:23:30;;;;;;;13.95;7.35;;;;;;;8.75;100.00;100218.34;4983626;28;20041;-76
2023/02/22 00:25:58;;;;;;;12.32;8.50;;;;;;;8.24;100.00;100231.16;5000196;28;20046;-76
2023/02/22 00:28:24;;;;;;;17.27;7.57;;;;;;;7.83;100.00;100103.72;4998514;28;20080;-75
2023/02/22 00:30:51;;;;;;;12.05;7.93;;;;;;;7.88;100.00;100103.75;5000613;28;20355;-76
2023/02/22 00:33:17;;;;;;;13.10;8.00;;;;;;;7.99;100.00;100124.72;5004097;28;20081;-75
2023/02/22 00:35:47;;;;;;;15.35;8.82;;;;;;;8.69;100.00;100233.19;5004871;28;20470;-76
2023/02/22 00:38:15;;;;;;;13.98;7.43;;;;;;;8.08;100.00;100118.66;4976915;28;20050;-76
2023/02/22 00:40:40;;;;;;;20.02;8.93;;;;;;;8.50;100.00;100198.19;4982053;28;20426;-76
2023/02/22 00:43:06;;;;;;;12.27;8.57;;;;;;;8.72;100.00;100218.34;4978768;28;20059;-75
2023/02/22 00:45:33;;;;;;;14.82;8.23;;;;;;;7.96;100.00;100096.84;4985757;28;20380;-76
2023/02/22 00:48:00;;;;;;;10.65;8.25;;;;;;;8.49;100.00;100197.31;4985175;28;20038;-77
2023/02/22 00:50:28;;;;;;;14.15;8.57;;;;;;;7.87;100.00;100099.41;4981775;28;20054;-76
2023/02/22 00:52:56;;;;;;;17.00;9.35;;;;;;;7.77;100.00;100105.41;4983259;28;20056;-75
2023/02/22 00:55:27;;;;;;;13.07;8.38;;;;;;;8.55;100.00;100225.25;4984733;28;20081;-75
2023/02/22 00:57:54;;;;;;;10.38;7.95;;;;;;;7.81;100.00;100096.72;4979091;28;20073;-77
2023/02/22 01:00:28;;;;;;;15.57;8.30;;;;;;;8.49;100.00;100223.47;4989229;28;20061;-76
2023/02/22 01:02:55;;;;;;;14.68;8.15;;;;;;;8.40;100.00;100213.81;5000555;28;20046;-76
2023/02/22 01:05:23;;;;;;;13.52;8.55;;;;;;;7.83;100.00;100123.75;4980984;28;20045;-76
2023/02/22 01:07:49;;;;;;;12.43;8.27;;;;;;;7.53;100.00;100075.66;4982297;28;20046;-75
2023/02/22 01:10:18;;;;;;;14.57;9.40;;;;;;;8.14;100.00;100190.13;4984779;28;20054;-75
2023/02/22 01:12:44;;;;;;;17.88;9.32;;;;;;;7.92;100.00;100143.84;4983116;28;20465;-77
2023/02/22 01:15:10;;;;;;;14.30;9.65;;;;;;;7.27;100.00;100064.16;4978526;28;20050;-77
2023/02/22 01:17:37;;;;;;;14.98;7.80;;;;;;;8.08;100.00;100177.03;4986335;28;20490;-76
2023/02/22 01:20:11;;;;;;;14.02;9.07;;;;;;;7.35;100.00;100075.53;4984951;28;20046;-76
2023/02/22 01:22:41;;;;;;;12.93;8.48;;;;;;;7.02;100.00;100074.38;4985625;28;20061;-76
2023/02/22 01:25:08;;;;;;;13.43;9.60;;;;;;;6.33;100.00;100058.94;4981136;28;20074;-76
2023/02/22 01:27:34;;;;;;;18.20;9.98;;;;;;;6.50;100.00;100085.16;4982108;28;20129;-76
2023/02/22 01:30:00;;;;;;;17.85;11.02;;;;;;;7.00;100.00;100180.47;4983777;28;20041;-76
2023/02/22 01:32:26;;;;;;;15.20;10.75;;;;;;;6.75;100.00;100135.84;4985684;28;20391;-75
2023/02/22 01:34:55;;;;;;;15.05;9.00;;;;;;;7.26;100.00;100157.25;5002899;28;20127;-77
2023/02/22 01:37:20;;;;;;;18.65;10.15;;;;;;;7.51;100.00;100204.44;4986456;28;20343;-75
2023/02/22 01:39:46;;;;;;;13.57;9.45;;;;;;;7.17;100.00;100198.91;4983704;28;21065;-76
2023/02/22 01:42:11;;;;;;;12.82;9.20;;;;;;;6.84;100.00;100134.22;4981600;28;20744;-77
2023/02/22 01:44:40;;;;;;;14.57;9.77;;;;;;;6.78;100.00;100106.31;4984342;28;20038;-76
2023/02/22 01:47:07;;;;;;;17.58;9.63;;;;;;;6.75;100.00;100115.00;4986006;28;20073;-75
2023/02/22 01:49:48;;;;;;;14.60;10.03;;;;;;;7.07;100.00;100187.50;4934860;28;1286225;-75
2023/02/22 01:52:20;;;;;;;12.35;8.73;;;;;;;7.28;100.00;100191.16;4994660;28;20050;-77
2023/02/22 01:54:51;;;;;;;14.40;9.27;;;;;;;6.57;100.00;100080.91;5006218;28;20054;-74
2023/02/22 01:57:22;;;;;;;14.77;9.38;;;;;;;6.48;100.00;100037.34;5001927;28;20050;-78
2023/02/22 01:59:55;;;;;;;15.80;8.65;;;;;;;7.24;100.00;100210.28;5006770;28;20506;-75
2023/02/22 02:02:23;;;;;;;11.18;6.72;;;;;;;7.20;100.00;100167.63;5011904;28;20038;-75
2023/02/22 02:04:52;;;;;;;13.13;9.68;;;;;;;6.96;100.00;100113.47;5005387;28;20045;-76
2023/02/22 02:07:20;;;;;;;16.73;9.35;;;;;;;6.62;100.00;100045.31;5006617;28;20184;-75
2023/02/22 02:09:53;;;;;;;14.30;9.27;;;;;;;7.45;100.00;100227.91;5001222;28;20069;-76
2023/02/22 02:12:22;;;;;;;12.35;6.82;;;;;;;6.73;100.00;100076.72;4998515;28;20051;-77
2023/02/22 02:14:47;;;;;;;17.13;10.00;;;;;;;6.78;100.00;100093.28;5000892;28;20045;-76
2023/02/22 02:17:16;;;;;;;15.00;9.68;;;;;;;7.59;100.00;100213.22;5006989;28;20069;-76
2023/02/22 02:19:58;;;;;;;19.77;10.55;;;;;;;7.62;100.00;100215.84;5000548;28;20095;-77
2023/02/22 02:22:45;;;;;;;16.67;9.52;;;;;;;6.82;100.00;100097.69;4996603;28;20084;-77
2023/02/22 02:25:32;;;;;;;16.23;9.68;;;;;;;7.37;100.00;100246.06;5000962;28;20341;-78
2023/02/22 02:28:10;;;;;;;15.65;9.18;;;;;;;6.94;100.00;100237.78;5006791;28;20049;-76
2023/02/22 02:31:03;;;;;;;17.67;9.63;;;;;;;6.87;100.00;100202.91;4999206;28;20145;-77
2023/02/22 02:33:52;;;;;;;13.88;8.38;;;;;;;6.47;100.00;100111.22;4981882;28;20065;-77
2023/02/22 02:36:59;;;;;;;15.75;9.52;;;;;;;7.39;100.00;100249.56;4969367;28;20076;-76
2023/02/22 02:39:27;;;;;;;13.35;9.35;;;;;;;7.17;100.00;100256.31;4966974;28;20055;-77
2023/02/22 02:41:53;;;;;;;11.13;8.02;;;;;;;6.22;100.00;100102.22;4982151;28;20030;-77
2023/02/22 02:44:36;;;;;;;13.75;9.43;;;;;;;7.20;100.00;100240.69;5004484;28;20037;-76
2023/02/22 02:47:02;;;;;;;;;;;;;;;7.48;100.00;100248.78;5007642;28;20045;-76
2023/02/22 02:49:47;;;;;;;16.83;9.02;;;;;;;7.09;100.00;100210.97;4988677;28;19967;-76
2023/02/22 02:52:17;;;;;;;19.20;9.38;;;;;;;6.49;100.00;100125.13;4985758;28;20398;-77
2023/02/22 02:54:44;;;;;;;17.00;9.25;;;;;;;6.74;100.00;100208.84;4987573;28;20216;-76
2023/02/22 02:57:10;;;;;;;22.40;9.80;;;;;;;6.37;100.00;100090.22;4986844;28;20130;-75
2023/02/22 02:59:37;;;;;;;16.80;9.43;;;;;;;6.84;100.00;100183.78;4992012;28;20070;-75
2023/02/22 03:02:10;;;;;;;12.35;9.15;;;;;;;7.13;100.00;100262.34;4990915;28;20064;-75
2023/02/22 03:04:53;;;;;;;14.35;9.40;;;;;;;7.12;100.00;100255.38;4989319;28;20057;-75
2023/02/22 03:07:28;;;;;;;13.60;9.45;;;;;;;7.08;100.00;100267.50;4988082;28;20063;-76
2023/02/22 03:09:59;;;;;;;13.73;8.18;;;;;;;7.09;100.00;100256.19;4990067;28;20043;-76
2023/02/22 03:12:46;;;;;;;18.23;8.93;;;;;;;7.22;100.00;100259.84;4990805;28;20081;-75
2023/02/22 03:15:42;;;;;;;12.60;8.77;;;;;;;7.18;100.00;100253.69;4990516;28;20054;-75
2023/02/22 03:18:21;;;;;;;20.13;9.57;;;;;;;7.29;100.00;100261.66;4987331;28;20474;-76
2023/02/22 03:21:08;;;;;;;14.00;8.32;;;;;;;7.35;100.00;100269.56;4982602;28;20114;-75
2023/02/22 03:23:51;;;;;;;15.52;5.32;;;;;;;7.25;100.00;100267.69;4981818;28;20062;-74
2023/02/22 03:26:28;;;;;;;17.02;9.80;;;;;;;6.42;100.00;100119.84;4989962;28;20053;-76
2023/02/22 03:28:54;;;;;;;11.27;8.10;;;;;;;7.25;100.00;100232.91;4987246;28;20050;-77
2023/02/22 03:31:26;;;;;;;24.45;9.07;;;;;;;7.22;100.00;100259.84;4988808;28;20050;-79
2023/02/22 03:33:56;;;;;;;13.48;9.55;;;;;;;6.43;100.00;100124.19;4990313;28;20061;-77
2023/02/22 03:36:37;;;;;;;17.75;9.52;;;;;;;6.53;100.00;100126.94;4986044;28;20058;-76
2023/02/22 03:39:08;;;;;;;13.13;8.65;;;;;;;6.66;100.00;100172.25;4987172;28;21062;-78
2023/02/22 03:41:39;;;;;;;20.05;9.13;;;;;;;6.18;100.00;100121.28;4989475;28;20380;-76
2023/02/22 03:44:10;;;;;;;13.15;7.93;;;;;;;6.81;100.00;100257.59;4988072;28;20065;-78
2023/02/22 03:46:38;;;;;;;13.50;8.90;;;;;;;6.36;100.00;100141.47;4987871;28;20050;-77
2023/02/22 03:49:11;;;;;;;12.55;8.80;;;;;;;6.75;100.00;100278.41;4988012;28;20557;-76
2023/02/22 03:51:38;;;;;;;12.63;7.95;;;;;;;5.88;100.00;100126.91;4983912;28;20055;-76
2023/02/22 03:54:05;;;;;;;16.33;10.70;;;;;;;6.50;100.00;100175.53;4985576;28;20042;-76
2023/02/22 03:56:36;;;;;;;16.67;9.07;;;;;;;6.47;100.00;100163.34;4982380;28;20101;-75
2023/02/22 03:59:07;;;;;;;14.15;10.02;;;;;;;6.26;100.00;100137.88;4987227;28;20043;-76
2023/02/22 04:01:34;;;;;;;22.05;9.07;;;;;;;7.03;100.00;100263.97;4987615;28;20525;-75
2023/02/22 04:03:59;;;;;;;12.32;9.15;;;;;;;7.23;100.00;100273.75;4987817;28;20082;-76
2023/02/22 04:06:25;;;;;;;14.43;8.75;;;;;;;6.44;100.00;100145.06;4984593;28;20101;-76
2023/02/22 04:08:51;;;;;;;11.95;8.45;;;;;;;6.35;100.00;100129.31;4986253;28;20092;-78
2023/02/22 04:11:16;;;;;;;12.45;8.98;;;;;;;7.00;100.00;100274.38;4988902;28;20034;-75
2023/02/22 04:13:42;;;;;;;14.45;9.63;;;;;;;5.96;100.00;100132.25;4986034;28;20519;-75
2023/02/22 04:16:07;;;;;;;15.80;8.93;;;;;;;6.91;100.00;100245.56;4988764;28;20452;-78
2023/02/22 04:18:33;;;;;;;18.10;10.55;;;;;;;6.91;100.00;100230.78;4989440;28;20053;-77
2023/02/22 04:20:58;;;;;;;14.32;8.70;;;;;;;6.61;100.00;100189.56;4994110;28;20411;-77
2023/02/22 04:23:24;;;;;;;16.20;9.45;;;;;;;6.65;100.00;100261.75;4999854;28;20046;-78
2023/02/22 04:25:49;;;;;;;17.45;9.48;;;;;;;6.78;100.00;100260.19;4989660;28;20057;-78
2023/02/22 04:28:15;;;;;;;17.05;9.98;;;;;;;6.21;100.00;100156.91;4990755;28;20042;-78
2023/02/22 04:30:42;;;;;;;19.75;7.95;;;;;;;6.43;100.00;100237.13;4987579;28;20418;-78
2023/02/22 04:33:09;;;;;;;17.92;8.48;;;;;;;6.52;100.00;100246.81;4988530;28;20105;-75
2023/02/22 04:35:35;;;;;;;9.70;6.32;;;;;;;6.86;100.00;100276.81;4983229;28;20093;-77
2023/02/22 04:38:01;;;;;;;17.38;10.02;;;;;;;6.91;100.00;100263.84;5002616;28;20046;-75
2023/02/22 04:40:26;;;;;;;15.95;9.20;;;;;;;6.78;100.00;100269.75;4994619;28;20073;-77
2023/02/22 04:42:52;;;;;;;19.92;10.90;;;;;;;6.71;100.00;100277.47;4986108;28;20039;-76
2023/02/22 04:45:17;;;;;;;14.63;10.73;;;;;;;6.38;100.00;100269.19;4982727;28;20061;-76
2023/02/22 04:47:43;;;;;;;16.45;11.27;;;;;;;5.23;100.00;100151.03;4979609;28;20702;-76
2023/02/22 04:50:10;;;;;;;25.23;11.20;;;;;;;5.42;100.00;100202.53;4982100;28;20533;-77
2023/02/22 04:52:36;;;;;;;14.23;10.82;;;;;;;5.80;100.00;100251.75;4985520;28;20077;-76
2023/02/22 04:55:01;;;;;;;12.38;6.10;;;;;;;5.45;100.00;100147.06;4980812;28;20477;-76
2023/02/22 04:57:28;;;;;;;15.80;7.47;;;;;;;5.16;100.00;100183.00;4988663;28;20129;-76
2023/02/22 04:59:53;;;;;;;18.23;10.57;;;;;;;5.68;100.00;100265.44;4981223;28;20038;-76
2023/02/22 05:02:19;;;;;;;17.33;7.68;;;;;;;5.47;100.00;100241.63;4988963;28;20436;-76
2023/02/22 05:04:45;;;;;;;22.38;8.40;;;;;;;5.60;100.00;100272.25;5005506;28;20057;-76
2023/02/22 05:07:11;;;;;;;13.90;7.90;;;;;;;5.15;100.00;100228.94;4991209;28;20057;-76
2023/02/22 05:09:36;;;;;;;17.17;6.82;;;;;;;4.95;100.00;100212.94;4980945;28;20043;-76
2023/02/22 05:12:02;;;;;;;10.70;7.85;;;;;;;4.88;100.00;100231.88;4981568;28;20435;-75
2023/02/22 05:14:27;;;;;;;17.15;9.88;;;;;;;5.24;100.00;100229.13;4990957;28;20130;-75
2023/02/22 05:16:55;;;;;;;15.48;10.20;;;;;;;5.39;100.00;100251.91;4984988;28;20046;-74
2023/02/22 05:19:21;;;;;;;18.30;8.30;;;;;;;5.15;100.00;100267.94;4991611;28;20054;-75
2023/02/22 05:21:46;;;;;;;16.77;7.85;;;;;;;4.36;100.00;100139.88;4977488;28;20061;-76
2023/02/22 05:24:12;;;;;;;14.15;6.75;;;;;;;4.62;100.00;100169.84;4987334;28;20054;-76
2023/02/22 05:26:37;;;;;;;13.43;7.88;;;;;;;4.59;100.00;100171.50;4985330;28;20129;-76
2023/02/22 05:29:03;;;;;;;15.90;7.28;;;;;;;5.18;100.00;100288.81;4987248;28;20137;-76
2023/02/22 05:31:28;;;;;;;17.15;9.77;;;;;;;4.67;100.00;100169.94;4991021;28;20509;-76
2023/02/22 05:33:53;;;;;;;13.15;7.80;;;;;;;5.43;100.00;100289.25;4990365;28;20049;-76
2023/02/22 05:36:19;;;;;;;22.55;9.95;;;;;;;5.30;100.00;100282.97;4971694;28;20046;-74
2023/02/22 05:38:44;;;;;;;15.45;8.57;;;;;;;5.26;100.00;100312.34;4990531;28;20479;-75
2023/02/22 05:41:11;;;;;;;15.25;8.95;;;;;;;4.41;100.00;100195.38;4981594;28;20053;-75
2023/02/22 05:43:38;;;;;;;21.55;10.70;;;;;;;4.88;100.00;100296.84;4986457;28;20050;-77
2023/02/22 05:46:04;;;;;;;17.08;11.63;;;;;;;3.95;100.00;100171.84;4981022;28;20185;-76
2023/02/22 05:48:30;;;;;;;22.50;12.15;;;;;;;4.06;100.00;100217.97;4982735;28;20212;-76
2023/02/22 05:50:56;;;;;;;29.85;12.57;;;;;;;3.87;100.00;100165.63;4984553;28;20026;-76
2023/02/22 05:53:22;;;;;;;18.23;11.75;;;;;;;4.42;100.00;100277.66;4984795;28;20058;-77
2023/02/22 05:55:48;;;;;;;18.55;12.13;;;;;;;3.78;100.00;100180.97;4983840;28;20185;-77
2023/02/22 05:58:14;;;;;;;23.35;11.82;;;;;;;3.63;100.00;100172.81;4987537;28;20478;-76
2023/02/22 06:00:40;;;;;;;21.60;11.02;;;;;;;4.44;100.00;100273.38;4984801;28;21927;-75
2023/02/22 06:03:08;;;;;;;17.35;12.57;;;;;;;4.63;100.00;100298.91;4988891;28;20034;-75
2023/02/22 06:05:34;;;;;;;20.05;10.88;;;;;;;5.06;100.00;100322.38;5004912;28;20109;-77
2023/02/22 06:08:00;;;;;;;22.85;12.65;;;;;;;4.80;100.00;100330.50;5001532;28;20128;-76
2023/02/22 06:10:27;;;;;;;16.15;11.10;;;;;;;4.19;100.00;100222.59;4993859;28;20057;-77
2023/02/22 06:12:53;;;;;;;17.70;10.82;;;;;;;4.12;100.00;100195.63;4996285;28;20153;-77
2023/02/22 06:15:20;;;;;;;26.45;13.32;;;;;;;4.73;100.00;100313.00;4990786;28;20054;-77
2023/02/22 06:17:46;;;;;;;26.60;15.07;;;;;;;4.79;100.00;100299.25;4979631;28;20449;-75
2023/02/22 06:20:14;;;;;;;33.85;13.93;;;;;;;4.97;100.00;100340.38;4992630;28;20049;-76
2023/02/22 06:22:44;;;;;;;26.48;15.93;;;;;;;4.37;100.00;100243.78;4979581;28;20069;-77
2023/02/22 06:25:14;;;;;;;24.05;14.65;;;;;;;4.09;100.00;100207.66;4974800;28;20076;-75
2023/02/22 06:27:39;;;;;;;31.92;16.30;;;;;;;4.93;100.00;100352.41;4978924;28;20053;-75
2023/02/22 06:30:05;;;;;;;20.92;14.40;;;;;;;5.05;100.00;100370.00;4984345;28;20056;-76
2023/02/22 06:32:31;;;;;;;25.73;14.68;;;;;;;5.11;100.00;100349.34;4977937;28;20042;-72
2023/02/22 06:34:56;;;;;;;22.65;14.63;;;;;;;5.32;100.00;100371.47;4979052;28;20065;-73
2023/02/22 06:37:22;;;;;;;27.88;15.02;;;;;;;5.49;100.00;100375.25;4981683;28;20042;-72
2023/02/22 06:39:47;;;;;;;23.40;13.95;;;;;;;5.36;100.00;100332.53;4984987;28;20197;-74
2023/02/22 06:42:14;;;;;;;27.95;14.07;;;;;;;5.63;100.00;100360.78;4978656;28;20153;-73
2023/02/22 06:44:39;;;;;;;25.13;14.88;;;;;;;4.98;100.00;100238.13;4983814;28;20042;-76
2023/02/22 06:47:05;;;;;;;20.67;15.38;;;;;;;5.89;100.00;100378.63;4986594;28;20054;-73
2023/02/22 06:49:30;;;;;;;28.10;15.23;;;;;;;5.93;100.00;100393.47;4988297;28;20379;-72
2023/02/22 06:51:56;;;;;;;28.88;12.90;;;;;;;5.41;100.00;100296.19;4985217;28;20046;-70
2023/02/22 06:54:22;;;;;;;31.65;15.10;;;;;;;5.29;100.00;100281.19;4986158;28;21713;-72
2023/02/22 06:56:48;;;;;;;23.92;15.38;;;;;;;5.36;100.00;100264.88;4986087;28;20109;-75
2023/02/22 06:59:14;;;;;;;17.25;11.82;;;;;;;5.75;100.00;100331.50;4988356;28;20121;-78
2023/02/22 07:01:41;;;;;;;18.08;12.27;;;;;;;5.86;100.00;100340.38;4986001;28;20069;-77
2023/02/22 07:04:06;;;;;;;22.10;12.65;;;;;;;6.09;100.00;100385.13;4983367;28;20149;-76
2023/02/22 07:06:32;;;;;;;21.58;13.77;;;;;;;6.06;100.00;100373.75;4988638;28;20594;-77
2023/02/22 07:08:57;;;;;;;24.35;14.00;;;;;;;5.65;100.00;100280.13;4986733;28;20075;-79
2023/02/22 07:11:24;;;;;;;28.33;15.80;;;;;;;6.34;100.00;100403.75;4989313;28;20038;-75
2023/02/22 07:13:49;;;;;;;20.42;14.18;;;;;;;5.91;100.00;100299.69;4989228;28;20053;-78
2023/02/22 07:16:15;;;;;;;31.58;15.82;;;;;;;6.45;100.00;100407.44;4990592;28;20038;-76
2023/02/22 07:18:40;;;;;;;22.42;15.68;;;;;;;6.72;100.00;100400.91;4986000;28;20085;-76
2023/02/22 07:21:06;;;;;;;16.48;12.82;;;;;;;6.01;100.00;100271.22;4989336;28;20022;-76
2023/02/22 07:23:32;;;;;;;20.88;13.60;;;;;;;6.07;100.00;100274.81;4985356;28;20534;-76
2023/02/22 07:26:01;;;;;;;18.90;12.93;;;;;;;6.39;100.00;100308.31;4987559;28;20106;-75
2023/02/22 07:28:27;;;;;;;30.60;13.32;;;;;;;7.17;100.00;100425.91;4986178;28;20045;-76
2023/02/22 07:30:52;;;;;;;18.23;12.93;;;;;;;7.19;100.00;100424.22;4988572;28;20046;-76
2023/02/22 07:33:18;;;;;;;24.05;14.63;;;;;;;6.26;100.00;100278.56;4986624;28;20042;-75
2023/02/22 07:35:46;;;;;;;33.88;12.95;;;;;;;6.93;100.00;100336.03;4987726;28;20054;-78
2023/02/22 07:38:14;;;;;;;28.23;12.55;;;;;;;6.94;100.00;100389.94;4987274;28;20099;-74
2023/02/22 07:40:40;;;;;;;24.58;10.63;;;;;;;7.23;100.00;100417.28;4990187;28;20058;-74
2023/02/22 07:43:26;;;;;;;46.30;12.65;;;;;;;7.13;100.00;100409.31;4985849;28;20484;-75
2023/02/22 07:45:54;;;;;;;23.52;11.60;;;;;;;6.97;100.00;100357.78;4985705;28;20050;-75
2023/02/22 07:48:22;;;;;;;37.95;13.02;;;;;;;7.19;100.00;100362.44;4988975;28;20073;-74
2023/02/22 07:50:49;;;;;;;17.65;11.90;;;;;;;7.58;100.00;100449.94;4982940;28;20482;-74
2023/02/22 07:53:19;;;;;;;32.13;15.82;;;;;;;7.03;100.00;100321.38;4990553;28;20034;-74
2023/02/22 07:55:49;;;;;;;15.35;8.90;;;;;;;7.59;100.00;100453.47;5005786;28;20145;-73
2023/02/22 07:58:18;;;;;;;31.33;15.93;;;;;;;7.82;100.00;100472.03;5012499;28;20573;-74
2023/02/22 08:00:46;;;;;;;23.00;9.68;;;;;;;7.12;100.00;100315.41;5004398;28;20164;-74
2023/02/22 08:03:12;;;;;;;18.48;14.23;;;;;;;7.35;100.00;100415.72;5004718;28;20049;-74
2023/02/22 08:05:45;;;;;;;24.58;15.27;;;;;;;7.79;100.00;100412.75;5010275;28;20714;-74
2023/02/22 08:08:11;;;;;;;20.33;12.30;;;;;;;8.20;100.00;100468.97;4990095;28;20046;-75
2023/02/22 08:10:37;;;;;;;24.80;12.02;;;;;;;8.17;100.00;100472.44;4990515;28;20050;-74
2023/02/22 08:13:04;;;;;;;21.58;17.25;;;;;;;7.54;100.00;100351.56;4993090;28;20560;-73
2023/02/22 08:15:37;;;;;;;22.85;15.23;;;;;;;7.75;100.00;100389.19;4994997;28;20053;-74
2023/02/22 08:18:07;;;;;;;23.52;14.43;;;;;;;8.11;100.00;100458.41;5009843;28;20116;-73
2023/02/22 08:20:34;;;;;;;25.55;16.75;;;;;;;7.98;100.00;100440.00;5007150;28;20026;-73
2023/02/22 08:23:00;;;;;;;23.27;16.15;;;;;;;7.31;100.00;100295.63;5006499;28;20046;-73
2023/02/22 08:25:28;;;;;;;30.83;15.95;;;;;;;8.00;100.00;100456.53;5005931;28;20050;-73
2023/02/22 08:28:01;;;;;;;20.05;13.45;;;;;;;7.57;100.00;100376.84;5009467;28;20049;-73
2023/02/22 08:30:29;;;;;;;23.08;10.13;;;;;;;7.94;100.00;100446.03;5003652;28;20122;-74
2023/02/22 08:32:56;;;;;;;19.63;11.48;;;;;;;7.92;100.00;100444.28;4990943;28;20142;-73
2023/02/22 08:35:23;;;;;;;28.63;15.07;;;;;;;7.84;100.00;100418.03;4990056;28;20398;-73
2023/02/22 08:37:51;;;;;;;23.20;12.07;;;;;;;8.18;100.00;100474.16;4987887;28;20046;-74
2023/02/22 08:40:22;;;;;;;19.20;14.27;;;;;;;8.13;100.00;100449.72;4981369;28;20054;-74
2023/02/22 08:42:48;;;;;;;26.77;14.98;;;;;;;8.45;100.00;100472.72;4987503;28;20501;-73
2023/02/22 08:45:14;;;;;;;27.15;16.77;;;;;;;8.28;100.00;100475.13;4982484;28;20045;-73
2023/02/22 08:47:40;;;;;;;18.50;14.50;;;;;;;7.57;100.00;100340.28;4994102;28;20125;-74
2023/02/22 08:50:06;;;;;;;24.02;16.20;;;;;;;8.03;100.00;100393.00;4987065;28;20146;-73
2023/02/22 08:52:32;;;;;;;23.90;15.75;;;;;;;8.37;100.00;100467.38;4988584;28;20112;-73
2023/02/22 08:54:57;;;;;;;28.38;17.45;;;;;;;7.94;100.00;100361.56;4991251;28;20055;-74
2023/02/22 08:57:23;;;;;;;25.67;15.15;;;;;;;8.55;100.00;100503.34;4987917;28;20042;-74
2023/02/22 08:59:49;;;;;;;24.02;14.60;;;;;;;8.44;100.00;100445.69;4989981;28;20026;-74
2023/02/22 09:02:16;;;;;;;17.30;14.75;;;;;;;8.42;100.00;100436.94;4983978;28;20054;-74
2023/02/22 09:04:42;;;;;;;27.83;17.05;;;;;;;8.11;100.00;100422.69;4991007;28;20061;-74
2023/02/22 09:07:08;;;;;;;22.00;14.52;;;;;;;8.42;100.00;100436.94;4989861;28;20039;-73
2023/02/22 09:09:34;;;;;;;19.92;14.85;;;;;;;8.16;100.00;100387.00;4990909;28;20558;-73
2023/02/22 09:12:00;;;;;;;21.60;16.40;;;;;;;8.62;100.00;100499.03;4988331;28;20525;-74
2023/02/22 09:14:27;;;;;;;24.45;15.63;;;;;;;8.54;100.00;100516.38;4987809;28;20062;-73
2023/02/22 09:16:52;;;;;;;29.85;15.50;;;;;;;7.84;100.00;100381.47;4990070;28;20034;-73
2023/02/22 09:19:18;;;;;;;19.05;14.13;;;;;;;8.45;100.00;100498.84;5001104;28;20033;-74
2023/02/22 09:21:43;;;;;;;19.67;16.40;;;;;;;7.43;100.00;100357.53;4992311;28;20541;-74
2023/02/22 09:24:09;;;;;;;23.30;16.48;;;;;;;8.33;100.00;100481.28;4989589;28;20408;-76
2023/02/22 09:26:38;;;;;;;23.77;16.10;;;;;;;7.70;100.00;100391.78;4993110;28;20030;-74
2023/02/22 09:29:08;;;;;;;19.65;15.65;;;;;;;8.72;100.00;100518.31;5006568;28;20108;-74
2023/02/22 09:31:37;;;;;;;25.45;17.85;;;;;;;8.56;100.00;100486.78;5008248;28;20042;-75
2023/02/22 09:34:12;;;;;;;25.05;16.95;;;;;;;7.96;100.00;100384.22;5008150;28;20046;-75
2023/02/22 09:36:45;;;;;;;28.00;16.95;;;;;;;7.85;100.00;100372.78;5005174;28;20046;-75
2023/02/22 09:39:11;;;;;;;24.15;17.48;;;;;;;8.61;100.00;100478.97;5004829;28;20049;-74
2023/02/22 09:42:10;;;;;;;25.25;17.65;;;;;;;8.65;100.00;100504.28;5006042;28;20120;-74
2023/02/22 09:44:47;;;;;;;30.58;17.98;;;;;;;8.77;100.00;100496.56;4987901;28;20503;-74
2023/02/22 09:47:35;;;;;;;20.92;16.35;;;;;;;9.08;100.00;100516.00;4984864;28;20061;-73
2023/02/22 09:50:14;;;;;;;28.65;18.80;;;;;;;8.30;100.00;100362.75;4984804;28;20062;-72
2023/02/22 09:53:17;;;;;;;25.67;17.30;;;;;;;9.43;100.00;100540.69;4978159;28;20546;-74
2023/02/22 09:55:49;;;;;;;24.70;16.27;;;;;;;8.83;100.00;100449.53;4972814;28;20042;-74
2023/02/22 09:58:21;;;;;;;20.17;15.37;;;;;;;9.86;100.00;100572.41;4989322;28;20042;-74
2023/02/22 10:00:50;;;;;;;23.73;14.15;;;;;;;9.41;100.00;100449.03;4986526;28;20549;-73
2023/02/22 10:03:24;;;;;;;19.35;15.25;;;;;;;10.17;100.00;100578.66;4987459;28;20145;-74
2023/02/22 10:06:13;;;;;;;22.45;15.90;;;;;;;9.65;100.00;100477.09;4992201;28;20049;-73
2023/02/22 10:08:40;;;;;;;27.98;15.40;;;;;;;9.26;100.00;100491.69;5011225;28;20117;-73
2023/02/22 10:11:18;;;;;;;24.00;14.18;;;;;;;9.98;100.00;100579.44;5010023;28;20034;-74
2023/02/22 10:14:01;;;;;;;20.17;15.43;;;;;;;10.00;100.00;100564.59;5010106;28;20128;-74
2023/02/22 10:16:42;;;;;;;28.45;16.05;;;;;;;10.30;100.00;100591.00;5007742;28;20101;-76
2023/02/22 10:19:37;;;;;;;34.67;18.13;;;;;;;10.09;100.00;100559.38;5012764;28;20081;-73
2023/02/22 10:22:20;;;;;;;22.90;15.95;;;;;;;10.23;100.00;100568.22;5000897;28;20149;-73
2023/02/22 10:24:53;;;;;;;23.13;15.65;;;;;;;9.79;100.00;100568.00;4995303;28;20045;-73
2023/02/22 10:27:21;;;;;;;;;;;;;;;9.96;100.00;100555.84;5011932;28;20046;-73
2023/02/22 10:29:53;;;;;;;26.33;15.82;;;;;;;9.91;100.00;100547.94;5005890;28;19914;-73
2023/02/22 10:32:29;;;;;;;20.20;14.70;;;;;;;10.18;100.00;100545.44;4993740;28;20541;-74
2023/02/22 10:34:57;;;;;;;21.67;16.15;;;;;;;9.79;100.00;100418.63;5009354;28;20062;-73
2023/02/22 10:37:24;;;;;;;23.10;17.48;;;;;;;10.32;100.00;100544.66;5009171;28;20517;-73
2023/02/22 10:39:54;;;;;;;46.45;16.00;;;;;;;9.69;100.00;100434.31;5007853;28;20053;-73
2023/02/22 10:42:24;;;;;;;25.48;16.45;;;;;;;10.56;100.00;100520.22;5006716;28;20558;-73
2023/02/22 10:44:49;;;;;;;22.80;16.95;;;;;;;9.58;100.00;100404.56;4989867;28;20050;-73
2023/02/22 10:47:17;;;;;;;23.10;16.13;;;;;;;10.15;100.00;100499.97;4991767;28;20043;-74
2023/02/22 10:49:49;;;;;;;22.63;16.58;;;;;;;9.96;100.00;100414.28;4988869;28;20046;-75
2023/02/22 10:52:26;;;;;;;28.27;17.17;;;;;;;10.22;100.00;100440.56;5002953;28;20178;-74
2023/02/22 10:54:55;;;;;;;31.10;16.75;;;;;;;10.85;100.00;100519.38;5001352;28;20037;-74
2023/02/22 10:57:26;;;;;;;33.90;17.20;;;;;;;10.87;100.00;100507.13;4993821;28;20054;-74
2023/02/22 10:59:52;;;;;;;29.70;15.13;;;;;;;9.82;100.00;100400.28;5010493;28;20081;-75
2023/02/22 11:02:28;;;;;;;19.50;15.52;;;;;;;10.33;100.00;100500.94;4989653;28;20035;-75
2023/02/22 11:04:57;;;;;;;24.48;16.38;;;;;;;10.80;100.00;100546.50;4987727;28;20046;-75
2023/02/22 11:07:34;;;;;;;19.65;15.43;;;;;;;10.83;100.00;100539.50;4993261;28;20049;-75
2023/02/22 11:10:03;;;;;;;21.58;15.23;;;;;;;10.20;100.00;100431.81;5000720;28;20034;-75
2023/02/22 11:12:36;;;;;;;20.08;16.10;;;;;;;10.39;100.00;100443.22;5015490;28;20211;-73
2023/02/22 11:15:18;;;;;;;28.73;15.75;;;;;;;10.72;100.00;100496.63;5008575;28;20033;-73
2023/02/22 11:17:45;;;;;;;21.52;15.45;;;;;;;10.38;100.00;100415.28;5010748;28;20025;-74
2023/02/22 11:20:28;;;;;;;19.23;13.95;;;;;;;10.56;100.00;100443.28;5011166;28;20054;-75
2023/02/22 11:23:02;;;;;;;18.23;13.55;;;;;;;11.19;100.00;100549.16;5004940;28;20124;-73